sensor_id;sensor_type;location;lat;lon;timestamp;temperature;humidity
34522;DHT22;25561;48.888;8.736;2022-09-30T05:31:07;9.20;99.90
34522;DHT22;25561;48.888;8.736;2022-09-30T05:34:09;9.30;99.90
34522;DHT22;25561;48.888;8.736;2022-09-30T05:37:11;9.30;99.90
34522;DHT22;25561;48.888;8.736;2022-09-30T05:40:13;9.20;99.90
34522;DHT22;25561;48.888;8.736;2022-09-30T05:43:15;9.20;99.90
34522;DHT22;25561;48.888;8.736;2022-09-30T05:46:18;9.40;99.90
34522;DHT22;25561;48.888;8.736;2022-09-30T05:49:20;9.50;99.90
34522;DHT22;25561;48.888;8.736;2022-09-30T05:52:22;9.50;99.90
34522;DHT22;25561;48.888;8.736;2022-09-30T05:55:24;9.60;99.90
34522;DHT22;25561;48.888;8.736;2022-09-30T05:58:26;9.80;99.90
34522;DHT22;25561;48.888;8.736;2022-09-30T06:01:28;10.00;99.90
34522;DHT22;25561;48.888;8.736;2022-09-30T06:04:31;10.20;99.90
34522;DHT22;25561;48.888;8.736;2022-09-30T06:07:36;10.40;99.90
34522;DHT22;25561;48.888;8.736;2022-09-30T06:10:41;10.60;99.90
34522;DHT22;25561;48.888;8.736;2022-09-30T06:50:15;10.50;99.90
34522;DHT22;25561;48.888;8.736;2022-09-30T06:53:26;10.70;99.90
34522;DHT22;25561;48.888;8.736;2022-09-30T06:56:28;11.20;99.90
34522;DHT22;25561;48.888;8.736;2022-09-30T06:59:32;11.40;99.90
34522;DHT22;25561;48.888;8.736;2022-09-30T07:02:34;11.40;99.90
34522;DHT22;25561;48.888;8.736;2022-09-30T07:05:37;11.80;99.90
34522;DHT22;25561;48.888;8.736;2022-09-30T07:08:39;12.00;99.90
34522;DHT22;25561;48.888;8.736;2022-09-30T07:11:41;12.00;99.90
34522;DHT22;25561;48.888;8.736;2022-09-30T07:14:43;11.70;99.90
34522;DHT22;25561;48.888;8.736;2022-09-30T07:17:50;11.60;99.90
34522;DHT22;25561;48.888;8.736;2022-09-30T07:20:54;11.80;99.90
34522;DHT22;25561;48.888;8.736;2022-09-30T07:23:56;12.00;99.90
34522;DHT22;25561;48.888;8.736;2022-09-30T07:26:59;12.20;99.90
34522;DHT22;25561;48.888;8.736;2022-09-30T07:30:01;12.20;99.90
34522;DHT22;25561;48.888;8.736;2022-09-30T07:33:22;12.00;99.90
34522;DHT22;25561;48.888;8.736;2022-09-30T07:36:25;12.10;99.90
34522;DHT22;25561;48.888;8.736;2022-09-30T07:39:35;12.20;99.90
34522;DHT22;25561;48.888;8.736;2022-09-30T07:42:39;12.20;99.90
34522;DHT22;25561;48.888;8.736;2022-09-30T07:45:47;11.80;99.90
34522;DHT22;25561;48.888;8.736;2022-09-30T07:48:52;11.70;99.90
34522;DHT22;25561;48.888;8.736;2022-09-30T07:51:56;12.00;99.90
34522;DHT22;25561;48.888;8.736;2022-09-30T07:54:59;12.00;99.90
34522;DHT22;25561;48.888;8.736;2022-09-30T07:58:04;12.20;99.90
34522;DHT22;25561;48.888;8.736;2022-09-30T08:01:08;12.30;99.90
34522;DHT22;25561;48.888;8.736;2022-09-30T08:04:12;12.50;99.90
34522;DHT22;25561;48.888;8.736;2022-09-30T08:07:16;12.70;99.90
34522;DHT22;25561;48.888;8.736;2022-09-30T08:10:20;12.80;99.90
34522;DHT22;25561;48.888;8.736;2022-09-30T08:13:23;12.40;99.90
34522;DHT22;25561;48.888;8.736;2022-09-30T08:16:25;12.20;99.90
34522;DHT22;25561;48.888;8.736;2022-09-30T08:19:28;12.40;99.90
34522;DHT22;25561;48.888;8.736;2022-09-30T08:22:31;12.60;99.90
34522;DHT22;25561;48.888;8.736;2022-09-30T08:25:33;12.80;99.90
34522;DHT22;25561;48.888;8.736;2022-09-30T08:28:36;12.90;99.90
34522;DHT22;25561;48.888;8.736;2022-09-30T08:31:40;12.90;99.90
34522;DHT22;25561;48.888;8.736;2022-09-30T08:34:42;12.80;99.90
34522;DHT22;25561;48.888;8.736;2022-09-30T08:37:45;12.90;99.90
34522;DHT22;25561;48.888;8.736;2022-09-30T08:41:14;13.00;99.90
34522;DHT22;25561;48.888;8.736;2022-09-30T08:44:44;12.90;99.90
34522;DHT22;25561;48.888;8.736;2022-09-30T08:51:35;13.60;99.90
34522;DHT22;25561;48.888;8.736;2022-09-30T08:54:44;13.80;99.90
34522;DHT22;25561;48.888;8.736;2022-09-30T08:57:47;13.50;99.90
34522;DHT22;25561;48.888;8.736;2022-09-30T09:00:53;13.40;99.90
34522;DHT22;25561;48.888;8.736;2022-09-30T09:03:57;13.40;99.90
34522;DHT22;25561;48.888;8.736;2022-09-30T09:07:07;13.60;99.90
34522;DHT22;25561;48.888;8.736;2022-09-30T09:10:39;13.90;99.90
34522;DHT22;25561;48.888;8.736;2022-09-30T09:13:58;14.10;99.90
34522;DHT22;25561;48.888;8.736;2022-09-30T09:17:41;14.10;99.90
34522;DHT22;25561;48.888;8.736;2022-09-30T09:21:28;14.00;99.90
34522;DHT22;25561;48.888;8.736;2022-09-30T09:24:40;14.80;99.90
34522;DHT22;25561;48.888;8.736;2022-09-30T09:28:05;15.10;99.90
34522;DHT22;25561;48.888;8.736;2022-09-30T09:31:16;15.00;99.90
34522;DHT22;25561;48.888;8.736;2022-09-30T09:34:21;14.60;99.90
34522;DHT22;25561;48.888;8.736;2022-09-30T09:37:38;14.50;99.90
34522;DHT22;25561;48.888;8.736;2022-09-30T09:41:24;14.90;99.90
34522;DHT22;25561;48.888;8.736;2022-09-30T09:44:38;15.00;99.90
34522;DHT22;25561;48.888;8.736;2022-09-30T09:47:42;14.90;99.90
34522;DHT22;25561;48.888;8.736;2022-09-30T09:50:57;14.70;99.90
34522;DHT22;25561;48.888;8.736;2022-09-30T09:54:03;14.50;99.90
34522;DHT22;25561;48.888;8.736;2022-09-30T09:57:12;14.70;99.90
34522;DHT22;25561;48.888;8.736;2022-09-30T10:03:43;15.30;99.90
34522;DHT22;25561;48.888;8.736;2022-09-30T10:06:51;15.70;99.90
34522;DHT22;25561;48.888;8.736;2022-09-30T10:13:25;16.00;99.90
34522;DHT22;25561;48.888;8.736;2022-09-30T10:16:31;16.20;99.90
34522;DHT22;25561;48.888;8.736;2022-09-30T10:19:50;16.40;99.90
34522;DHT22;25561;48.888;8.736;2022-09-30T10:23:08;16.80;99.90
34522;DHT22;25561;48.888;8.736;2022-09-30T10:29:32;16.70;99.90
34522;DHT22;25561;48.888;8.736;2022-09-30T10:32:34;16.30;99.90
34522;DHT22;25561;48.888;8.736;2022-09-30T10:35:49;16.90;99.90
34522;DHT22;25561;48.888;8.736;2022-09-30T10:38:59;16.10;99.90
34522;DHT22;25561;48.888;8.736;2022-09-30T10:42:18;16.50;99.90
34522;DHT22;25561;48.888;8.736;2022-09-30T10:45:32;16.50;99.90
34522;DHT22;25561;48.888;8.736;2022-09-30T10:48:38;16.30;99.90
34522;DHT22;25561;48.888;8.736;2022-09-30T10:51:44;17.60;99.90
34522;DHT22;25561;48.888;8.736;2022-09-30T10:54:52;19.90;99.90
34522;DHT22;25561;48.888;8.736;2022-09-30T10:58:00;20.10;99.90
34522;DHT22;25561;48.888;8.736;2022-09-30T11:01:20;19.80;99.90
34522;DHT22;25561;48.888;8.736;2022-09-30T11:04:35;20.00;99.90
34522;DHT22;25561;48.888;8.736;2022-09-30T11:07:45;18.50;99.90
34522;DHT22;25561;48.888;8.736;2022-09-30T11:11:10;17.50;99.90
34522;DHT22;25561;48.888;8.736;2022-09-30T11:14:22;17.80;99.90
34522;DHT22;25561;48.888;8.736;2022-09-30T11:17:35;17.10;99.90
34522;DHT22;25561;48.888;8.736;2022-09-30T11:20:44;17.20;99.90
34522;DHT22;25561;48.888;8.736;2022-09-30T11:23:58;16.90;99.90
34522;DHT22;25561;48.888;8.736;2022-09-30T11:30:51;16.70;99.90
34522;DHT22;25561;48.888;8.736;2022-09-30T11:34:16;16.80;99.90
34522;DHT22;25561;48.888;8.736;2022-09-30T11:37:53;17.40;99.90
34522;DHT22;25561;48.888;8.736;2022-09-30T11:41:32;17.80;99.90
34522;DHT22;25561;48.888;8.736;2022-09-30T11:44:33;18.00;99.90
34522;DHT22;25561;48.888;8.736;2022-09-30T11:55:21;17.10;99.90
34522;DHT22;25561;48.888;8.736;2022-09-30T11:58:35;17.40;99.90
34522;DHT22;25561;48.888;8.736;2022-09-30T12:01:46;17.30;99.90
34522;DHT22;25561;48.888;8.736;2022-09-30T12:04:52;17.30;99.90
34522;DHT22;25561;48.888;8.736;2022-09-30T12:08:17;17.70;99.90
34522;DHT22;25561;48.888;8.736;2022-09-30T12:11:32;17.80;99.90
34522;DHT22;25561;48.888;8.736;2022-09-30T12:14:58;17.70;99.90
34522;DHT22;25561;48.888;8.736;2022-09-30T12:18:21;17.80;99.90
34522;DHT22;25561;48.888;8.736;2022-09-30T12:21:35;17.70;99.90
34522;DHT22;25561;48.888;8.736;2022-09-30T12:24:42;17.90;99.90
34522;DHT22;25561;48.888;8.736;2022-09-30T12:27:49;18.10;99.90
34522;DHT22;25561;48.888;8.736;2022-09-30T12:31:12;17.60;99.90
34522;DHT22;25561;48.888;8.736;2022-09-30T12:38:29;17.30;99.90
34522;DHT22;25561;48.888;8.736;2022-09-30T12:41:58;16.70;99.90
34522;DHT22;25561;48.888;8.736;2022-09-30T12:45:27;16.70;99.90
34522;DHT22;25561;48.888;8.736;2022-09-30T12:48:37;16.60;99.90
34522;DHT22;25561;48.888;8.736;2022-09-30T12:51:43;16.40;99.90
34522;DHT22;25561;48.888;8.736;2022-09-30T12:54:50;16.30;99.90
34522;DHT22;25561;48.888;8.736;2022-09-30T12:57:53;16.30;99.90
34522;DHT22;25561;48.888;8.736;2022-09-30T13:01:10;16.50;99.90
34522;DHT22;25561;48.888;8.736;2022-09-30T13:04:16;16.70;99.90
34522;DHT22;25561;48.888;8.736;2022-09-30T13:07:21;16.90;99.90
34522;DHT22;25561;48.888;8.736;2022-09-30T13:10:27;16.80;99.90
34522;DHT22;25561;48.888;8.736;2022-09-30T13:13:31;16.80;99.90
34522;DHT22;25561;48.888;8.736;2022-09-30T13:16:59;16.70;99.90
34522;DHT22;25561;48.888;8.736;2022-09-30T13:23:45;16.70;99.90
34522;DHT22;25561;48.888;8.736;2022-09-30T13:27:06;16.80;99.90
34522;DHT22;25561;48.888;8.736;2022-09-30T13:33:39;17.40;99.90
34522;DHT22;25561;48.888;8.736;2022-09-30T13:39:54;17.50;99.90
34522;DHT22;25561;48.888;8.736;2022-09-30T13:42:58;17.40;99.90
34522;DHT22;25561;48.888;8.736;2022-09-30T13:53:06;17.00;99.90
34522;DHT22;25561;48.888;8.736;2022-09-30T13:56:22;16.90;99.90
34522;DHT22;25561;48.888;8.736;2022-09-30T13:59:48;17.00;99.90
34522;DHT22;25561;48.888;8.736;2022-09-30T14:03:05;17.10;99.90
34522;DHT22;25561;48.888;8.736;2022-09-30T14:06:42;17.00;99.90
34522;DHT22;25561;48.888;8.736;2022-09-30T14:10:15;16.70;99.90
34522;DHT22;25561;48.888;8.736;2022-09-30T14:17:24;16.90;99.90
34522;DHT22;25561;48.888;8.736;2022-09-30T14:20:40;16.90;99.90
34522;DHT22;25561;48.888;8.736;2022-09-30T14:23:44;16.70;99.90
34522;DHT22;25561;48.888;8.736;2022-09-30T14:26:59;16.50;99.90
34522;DHT22;25561;48.888;8.736;2022-09-30T14:30:23;16.50;99.90
34522;DHT22;25561;48.888;8.736;2022-09-30T14:33:25;16.50;99.90
34522;DHT22;25561;48.888;8.736;2022-09-30T14:36:28;16.20;99.90
34522;DHT22;25561;48.888;8.736;2022-09-30T14:39:31;16.40;99.90
34522;DHT22;25561;48.888;8.736;2022-09-30T14:42:36;16.50;99.90
34522;DHT22;25561;48.888;8.736;2022-09-30T14:45:42;16.70;99.90
34522;DHT22;25561;48.888;8.736;2022-09-30T14:48:45;16.90;99.90
34522;DHT22;25561;48.888;8.736;2022-09-30T14:51:48;16.80;99.90
34522;DHT22;25561;48.888;8.736;2022-09-30T14:54:50;16.80;99.90
34522;DHT22;25561;48.888;8.736;2022-09-30T14:57:54;16.70;99.90
34522;DHT22;25561;48.888;8.736;2022-09-30T15:01:16;16.80;99.90
34522;DHT22;25561;48.888;8.736;2022-09-30T15:04:23;16.70;99.90
34522;DHT22;25561;48.888;8.736;2022-09-30T15:07:26;16.80;99.90
34522;DHT22;25561;48.888;8.736;2022-09-30T15:10:28;16.80;99.90
34522;DHT22;25561;48.888;8.736;2022-09-30T15:13:31;16.70;99.90
34522;DHT22;25561;48.888;8.736;2022-09-30T15:16:45;16.80;99.90
34522;DHT22;25561;48.888;8.736;2022-09-30T15:19:47;16.50;99.90
34522;DHT22;25561;48.888;8.736;2022-09-30T15:22:51;16.50;99.90
34522;DHT22;25561;48.888;8.736;2022-09-30T15:25:53;16.60;99.90
34522;DHT22;25561;48.888;8.736;2022-09-30T15:28:55;16.60;99.90
34522;DHT22;25561;48.888;8.736;2022-09-30T15:32:02;16.60;99.90
34522;DHT22;25561;48.888;8.736;2022-09-30T15:35:06;16.10;99.90
34522;DHT22;25561;48.888;8.736;2022-09-30T15:38:25;16.10;99.90
34522;DHT22;25561;48.888;8.736;2022-09-30T15:41:27;16.00;99.90
34522;DHT22;25561;48.888;8.736;2022-09-30T15:44:37;15.80;99.90
34522;DHT22;25561;48.888;8.736;2022-09-30T15:48:00;15.70;99.90
34522;DHT22;25561;48.888;8.736;2022-09-30T15:51:24;15.40;99.90
34522;DHT22;25561;48.888;8.736;2022-09-30T15:54:30;15.00;99.90
34522;DHT22;25561;48.888;8.736;2022-09-30T15:57:44;14.90;99.90
